Kula, HI (96790)

12:08 PM HST on November 26, 2014 (GMT -1000)
Lower Kula | Change Station
CLOSE
Current Station
Personal Weather Station
Location: Kula, HI
Elevation: 2336 ft
Nearby Weather Stations

Elev 2336 ft 20.76 °N, 156.34 °W | Updated 3 minutes ago

Clear
Clear
75.8 °F
Feels Like 78 °F
N
3.0
Wind Variable Wind from NNW
Gusts 10.0 mph

Today
High -- | Low -- °F
--% Chance of Precip.
Yesterday
High -- | Low -- °F
Precip. -- in
6:42 AM 5:42 PM
Waxing Crescent, 23% visible
Pressure 30.08 in
Visibility 8.0 miles
Clouds Clear
Heat Index 78 °F
Dew Point 60 °F
Humidity 57%
Rainfall 0.00 in
Snow Depth Not available.
UV 7 out of 12
Pollen Not available.
Air Quality Not available.
Flu Activity Not available.
METAR PHNY 262156Z AUTO 03024G31KT 8SM CLR 24/17 A3008 RMK AO2 TSNO T02440166 PK WND 04032/2131 SLPNO $

More Conditions Fewer Conditions

Pressure 30.08 in
Visibility 8.0 miles
Clouds Clear
Heat Index 78 °F
Dew Point 60 °F
Humidity 57%
Rainfall 0.00 in
Snow Depth Not available.
UV 7 out of 12
Pollen Not available.
Air Quality Not available.
Flu Activity Not available.
METAR PHNY 262156Z AUTO 03024G31KT 8SM CLR 24/17 A3008 RMK AO2 TSNO T02440166 PK WND 04032/2131 SLPNO $

More Conditions Fewer Conditions

10-Day Weather Forecast

Almanac

Astronomy

Nov. 26, 2014 Rise Set
Actual Time
Civil Twilight
Nautical Twilight
Astronomical Twilight
Moon
Length of Visible Light
Length of Day
Tomorrow will be .
, % of the Moon is Illuminated

Today's Extremes

State Highs State Lows

Community

WunderPhotos

Upload Photos

1,773,888 photos uploaded!

WunderBlogs® & News

Nearby

Air Quality

  Air Quality AQ Index Pollutant
Not available.

Snow Depth

Station Depth Elevation

Earthquake Activity

City Distance Mag. Time & Date
Minimum magnitude displayed is 2.5.

Coastal Water Temperatures

Place Temperature

Nearby Weather Stations